LSNO2: Neosho River nr Langley (Spillway)

Data processed at Fri Mar 09 2018 23:13


All information presented herein is the property of the government of the United States of America and may be revised or deleted at any time without prior notice.
Dissemination of this information without the expressed written consent of the Public Affairs Office, Tulsa District U.S. Army Corps of Engineers is strictly prohibited.
These data are gathered electronically and, as presented, have not undergone any form of quality control. These data are not guaranteed to be valid or correct.
Go to home page.
Go to station list.

Upstream stations:

Downstream station:
Previous Day
Next Day
Current Day
    
SHEF ID:       LSNO2     Neosho River (spillway) near Lan
STATION TYPE:  

                STAGE  RIV-FLOW  BAT-LOAD
                   ft       cfs      volt
              Ccp-Rev   Ccp-Rev   Ccp-Rev
(US/Central)
03/07 00:00     15.07     26344     12.65
03/07 01:00     15.14     26687     12.65
03/07 02:00     15.18     26883     12.65
03/07 03:00     15.20     26981     12.65
03/07 04:00     15.24     27177     12.57
03/07 05:00     15.29     27422     12.57
03/07 06:00     15.34     27667     12.57
03/07 07:00     15.38     27863     12.57
03/07 08:00     15.36     27765     12.57
03/07 09:00     15.28     27373     12.57
03/07 10:00     15.24     27177     12.65
03/07 11:00     15.20     26981     13.13
03/07 12:00     15.15     26736     13.44
03/07 13:00     15.08     26393     13.60
03/07 14:00     15.18     26883     13.60
03/07 15:00     15.24     27177     13.60
03/07 16:00     15.24     27177     13.53
03/07 17:00     15.28     27373     13.29
03/07 18:00     15.34     27667     13.13
03/07 19:00     15.37     27814     12.89
03/07 20:00     15.36     27765     12.81
03/07 21:00     15.30     27471     12.73
03/07 22:00     15.24     27177     12.73
03/07 23:00     15.17     26834     12.73